Ølgod Airfield

DK-0035 · Danemark-du-Sud, Danemark

METAR anciennes DK-0035 · Ølgod Airfield

Tu vois ci-dessous les METAR des derniers jours. Sélectionne une année pour parcourir les METAR plus anciens, à partir de l'année 2007.

19 avril 2024

Temps Code Temps Temp. Vue Base cloud Vent METAR/SPECI
20:20
V
6 °C 10 km+ - 350° 350° 8 kt METAR EKVJ 191820Z AUTO 35008KT 9999 NCD 06/M00 Q1009 TEST
19:50
V
7 °C 10 km+ - 350° 350° 7 kt METAR EKVJ 191750Z AUTO 35007KT 320V030 9999 FEW041/// 07/M02 Q1008 TEST
19:20
V
7 °C 10 km+ - 020° 020° 9 kt METAR EKVJ 191720Z AUTO 02009KT 340V050 9999 FEW041/// 07/M02 Q1007 TEST
18:50
V
7 °C 10 km+ 4.900 ft 360° 360° 9 kt METAR EKVJ 191650Z AUTO 36009KT 9999 BKN049/// 07/M02 Q1007 TEST
18:20
V
7 °C 10 km+ - 020° 020° 11 kt METAR EKVJ 191620Z AUTO 02011KT 340V050 9999 FEW038/// 07/M03 Q1007 TEST
17:50
V
7 °C 10 km+ - 030° 030° 11 kt METAR EKVJ 191550Z AUTO 03011KT 360V060 9999 SCT037/// 07/M02 Q1006 TEST
17:20
V
7 °C 10 km+ 3.400 ft 020° 020° 11 kt METAR EKVJ 191520Z AUTO 02011KT 9999 BKN034/// 07/M01 Q1006 TEST
16:50
V
7 °C 10 km+ 3.100 ft 040° 040° 12 kt METAR EKVJ 191450Z AUTO 04012KT 350V080 9999 BKN031/// 07/M00 Q1005 TEST
16:20
V
7 °C 10 km+ 3.400 ft 020° 020° 13 - 24 kt METAR EKVJ 191420Z AUTO 02013G24KT 9999 FEW027/// BKN034/// 07/M01 Q1005 TEST
15:50
M
7 °C 10 km+ 3.000 ft 040° 040° 15 kt METAR EKVJ 191350Z 04015KT 9999 BKN030 07/01 Q1004
14:51
M
7 °C 10 km+ 3.000 ft 040° 040° 16 kt METAR EKVJ 191251Z 04016KT 9999 BKN030 07/01 Q1003
13:49
M
7 °C 10 km+ 1.700 ft 040° 040° 15 kt METAR EKVJ 191149Z 04015KT 010V070 9999 -RA BKN017 BKN030 07/04 Q1002
12:50
M
6 °C 10 km+ 1.700 ft 030° 030° 13 kt METAR EKVJ 191050Z 03013KT 360V060 9999 -RA BKN017 06/04 Q1001
11:50
M
6 °C 10 km+ 1.300 ft 040° 040° 16 kt METAR EKVJ 190950Z 04016KT 9999 -RA BKN013 BKN020 06/03 Q1000
10:50
M
6 °C 10 km+ 1.300 ft 060° 060° 15 kt METAR EKVJ 190850Z 06015KT 9999 BKN013 06/04 Q0999
09:50
M
4 °C 10 km+ 1.200 ft 060° 060° 13 kt METAR EKVJ 190750Z 06013KT 9999 -RA BKN012 04/03 Q0999
08:50
M
4 °C 10 km+ 1.200 ft 060° 060° 15 kt METAR EKVJ 190650Z 06015KT 9999 SCT009 BKN012 04/03 Q0998
07:50
M
4 °C 10 km+ 1.500 ft 080° 080° 14 kt METAR EKVJ 190550Z 08014KT 9999 -RA SCT012 BKN015 04/03 Q0998
07:28
M
4 °C 10 km+ 1.200 ft 080° 080° 13 kt METAR EKVJ 190528Z 08013KT 9999 -RA SCT010 BKN012 04/03 Q0998

18 avril 2024

Temps Code Temps Temp. Vue Base cloud Vent METAR/SPECI
14:50
V
8 °C 10 km+ - 260° 260° 8 kt METAR EKVJ 181250Z 26008KT 220V290 9999 SCT038 08/01 Q1014
13:51
V
9 °C 10 km+ - 240° 240° 7 kt METAR EKVJ 181151Z 24007KT 210V320 9999 FEW040 09/01 Q1014
12:52
V
8 °C 10 km+ 4.000 ft 280° 280° 8 kt METAR EKVJ 181052Z 28008KT 240V310 9999 BKN040 08/M01 Q1014
11:50
M
8 °C 10 km+ 3.000 ft 260° 260° 7 kt METAR EKVJ 180950Z 26007KT 210V310 9999 BKN030 08/M00 Q1015
10:50
M
8 °C 10 km+ 3.000 ft 270° 270° 7 kt METAR EKVJ 180850Z 27007KT 230V300 9999 BKN030 08/01 Q1015
10:02
M
7 °C 10 km+ 2.500 ft 280° 280° 7 kt METAR EKVJ 180802Z 28007KT 240V320 9999 BKN025 07/01 Q1015
08:50
M
7 °C 10 km+ 2.200 ft 300° 300° 9 kt METAR EKVJ 180650Z 30009KT 270V330 9999 BKN022 07/02 Q1014
07:50
M
6 °C 10 km+ 1.900 ft 290° 290° 10 kt METAR EKVJ 180550Z 29010KT 9999 BKN019 06/03 Q1014
07:22
V
6 °C 10 km+ - 280° 280° 9 kt METAR EKVJ 180522Z 28009KT 9999 SCT018 06/02 Q1014

17 avril 2024

Temps Code Temps Temp. Vue Base cloud Vent METAR/SPECI
15:20
V
9 °C 10 km+ 7.000 ft 300° 300° 10 kt METAR EKVJ 171320Z 30010KT 260V340 9999 FEW034 BKN070 09/03 Q1009
13:50
V
9 °C 10 km+ - 310° 310° 10 kt METAR EKVJ 171150Z 31010KT 280V340 9999 FEW034 09/03 Q1009
13:20
V
8 °C 10 km+ - 300° 300° 8 kt METAR EKVJ 171120Z 30008KT 270V340 9999 FEW034 08/03 Q1009
11:50
M
8 °C 10 km+ 3.000 ft 320° 320° 7 kt METAR EKVJ 170950Z 32007KT 280V360 9999 FEW025 BKN030 08/02 Q1008
09:52
M
7 °C 10 km+ 3.000 ft 310° 310° 8 kt METAR EKVJ 170752Z 31008KT 280V350 9999 FEW025 BKN030 07/02 Q1008
09:20
V
7 °C 10 km+ 3.500 ft 320° 320° 10 kt METAR EKVJ 170720Z 32010KT 290V350 9999 FEW025 BKN035 07/02 Q1008
08:50
V
7 °C 10 km+ 3.500 ft 320° 320° 8 kt METAR EKVJ 170650Z 32008KT 9999 -RA FEW020 BKN035 07/02 Q1008
08:20
M
7 °C 10 km+ 3.000 ft 300° 300° 9 kt METAR EKVJ 170620Z 30009KT 9999 -RA BKN030 07/03 Q1007
07:50
M
7 °C 10 km+ 3.000 ft 320° 320° 7 kt METAR EKVJ 170550Z 32007KT 290V350 9999 BKN030 07/02 Q1007
Signaler les modifications